createdAt,value
2019-04-07T18:02:10.675Z,79.14
2019-04-07T18:05:15.697Z,78.79
2019-04-07T18:08:07.783Z,78.92
2019-04-07T18:10:46.605Z,79.32
2019-04-07T18:13:41.964Z,79.17
2019-04-07T18:16:36.679Z,79.51
2019-04-07T18:19:31.855Z,79.80
2019-04-07T18:22:28.611Z,80.45
2019-04-07T18:25:12.239Z,80.28
2019-04-07T18:28:04.026Z,79.38
2019-04-07T18:30:43.814Z,79.69
2019-04-07T18:33:26.988Z,78.93
2019-04-07T18:36:16.937Z,79.54
2019-04-07T18:39:08.001Z,78.91
2019-04-07T18:41:57.229Z,78.20
2019-04-07T18:44:54.225Z,78.11
2019-04-07T18:47:35.711Z,78.13
2019-04-07T18:50:25.280Z,78.07
2019-04-07T18:53:27.683Z,77.74
2019-04-07T18:56:15.525Z,77.18
2019-04-07T18:58:55.813Z,77.38
2019-04-07T19:02:04.485Z,76.99
2019-04-07T19:05:08.164Z,76.40
2019-04-07T19:07:53.963Z,76.26
2019-04-07T19:11:10.388Z,74.96
2019-04-07T19:14:20.947Z,75.95
2019-04-07T19:16:58.807Z,76.28
2019-04-07T19:19:53.980Z,76.92
2019-04-07T19:22:41.652Z,77.85
2019-04-07T19:25:27.025Z,78.44
2019-04-07T19:28:16.720Z,79.01
2019-04-07T19:31:19.335Z,78.63
2019-04-07T19:34:03.892Z,78.79
2019-04-07T19:36:57.236Z,78.88
2019-04-07T19:39:45.213Z,79.49
2019-04-07T19:42:39.232Z,79.48
2019-04-07T19:45:24.778Z,79.51
2019-04-07T19:48:14.417Z,79.80
2019-04-07T19:51:03.101Z,79.80
2019-04-07T19:53:55.873Z,79.51
2019-04-07T19:56:51.162Z,79.87
2019-04-07T19:59:30.176Z,80.54
2019-04-07T20:02:22.528Z,80.66
2019-04-07T20:05:32.157Z,81.32
2019-04-07T20:08:14.240Z,81.71
2019-04-07T20:11:09.746Z,81.79
2019-04-07T20:14:02.948Z,81.96
2019-04-07T20:16:51.369Z,82.57
2019-04-07T20:19:41.254Z,82.64
2019-04-07T20:22:37.122Z,82.79
2019-04-07T20:25:17.496Z,83.00
2019-04-07T20:27:56.145Z,82.72
2019-04-07T20:30:51.732Z,82.57
2019-04-07T20:33:45.708Z,81.69
2019-04-07T20:36:42.268Z,80.94
2019-04-07T20:39:43.936Z,80.96
2019-04-07T20:42:48.461Z,80.42
2019-04-07T20:45:35.428Z,79.63
2019-04-07T20:48:31.603Z,79.50
2019-04-07T20:51:19.326Z,80.22
2019-04-07T20:54:07.594Z,80.18
2019-04-07T20:57:11.420Z,80.69
2019-04-07T21:00:03.663Z,80.62
2019-04-07T21:03:14.497Z,81.40
2019-04-07T21:05:42.312Z,81.92
2019-04-07T21:08:24.055Z,82.47
2019-04-07T21:11:16.119Z,83.11
2019-04-07T21:14:01.654Z,83.07
2019-04-07T21:16:46.448Z,83.15
2019-04-07T21:19:42.259Z,83.27
2019-04-07T21:22:45.057Z,83.87
2019-04-07T21:25:29.860Z,84.07
2019-04-07T21:28:14.417Z,84.16
2019-04-07T21:30:58.809Z,84.35
2019-04-07T21:33:47.636Z,84.57
2019-04-07T21:36:26.389Z,84.85
2019-04-07T21:39:08.776Z,85.06
2019-04-07T21:42:01.783Z,85.43
2019-04-07T21:45:02.391Z,85.52
2019-04-07T21:47:44.940Z,85.61
2019-04-07T21:50:40.011Z,85.77
2019-04-07T21:53:30.913Z,86.09
2019-04-07T21:56:20.439Z,85.91
2019-04-07T21:59:09.632Z,86.10
2019-04-07T22:02:12.629Z,86.40
2019-04-07T22:05:04.576Z,86.40
2019-04-07T22:07:56.952Z,86.32
2019-04-07T22:10:27.564Z,86.49
2019-04-07T22:13:01.813Z,86.32
2019-04-07T22:15:43.005Z,86.28
2019-04-07T22:18:06.835Z,86.30
2019-04-07T22:20:36.968Z,86.02
2019-04-07T22:23:09.578Z,85.97
2019-04-07T22:25:54.358Z,85.75
2019-04-07T22:28:28.393Z,85.62
2019-04-07T22:30:57.994Z,85.32
2019-04-07T22:33:30.825Z,84.81
2019-04-07T22:36:01.793Z,84.57
2019-04-07T22:38:32.385Z,84.10
2019-04-07T22:41:02.844Z,84.11
2019-04-07T22:43:33.821Z,83.58
2019-04-07T22:46:14.744Z,83.68
2019-04-07T22:48:36.584Z,84.04
2019-04-07T22:51:12.086Z,84.20
2019-04-07T22:53:41.286Z,83.95
2019-04-07T22:56:12.152Z,84.04
2019-04-07T22:58:44.404Z,84.31
2019-04-07T23:01:15.041Z,83.94
2019-04-07T23:03:45.648Z,83.47
2019-04-07T23:06:16.835Z,83.02
2019-04-07T23:08:47.480Z,82.86
2019-04-07T23:11:17.906Z,82.52
2019-04-07T23:13:49.367Z,82.18
2019-04-07T23:16:20.658Z,81.92
2019-04-07T23:18:50.886Z,81.23
2019-04-07T23:21:24.647Z,81.24
2019-04-07T23:23:55.614Z,80.57
2019-04-07T23:26:27.224Z,80.56
2019-04-07T23:28:58.431Z,81.21
2019-04-07T23:31:32.058Z,81.32
2019-04-07T23:34:03.049Z,81.51
2019-04-07T23:36:36.123Z,81.38
2019-04-07T23:39:09.858Z,81.31
2019-04-07T23:41:41.410Z,81.68
2019-04-07T23:44:12.924Z,81.86
2019-04-07T23:46:43.613Z,81.78
2019-04-07T23:49:14.009Z,81.97
2019-04-07T23:51:44.420Z,81.86
2019-04-07T23:54:16.400Z,81.31
2019-04-07T23:56:47.762Z,81.86
2019-04-07T23:59:18.682Z,82.75
